createdAt,value
2017-10-11T00:01:25.929Z,97401.52
2017-10-11T00:03:53.359Z,97407.52
2017-10-11T00:06:20.820Z,97401.95
2017-10-11T00:08:49.093Z,97398.30
2017-10-11T00:11:16.983Z,97398.52
2017-10-11T00:13:44.758Z,97397.15
2017-10-11T00:16:12.166Z,97395.05
2017-10-11T00:18:39.583Z,97392.69
2017-10-11T00:21:07.076Z,97387.37
2017-10-11T00:23:34.498Z,97387.47
2017-10-11T00:26:01.960Z,97388.23
2017-10-11T00:28:29.425Z,97386.22
2017-10-11T00:30:56.832Z,97385.41
2017-10-11T00:33:24.331Z,97384.24
2017-10-11T00:35:51.795Z,97389.64
2017-10-11T00:38:19.218Z,97390.08
2017-10-11T00:40:46.628Z,97391.54
2017-10-11T00:43:14.067Z,97396.08
2017-10-11T00:45:41.480Z,97387.55
2017-10-11T00:48:08.905Z,97384.28
2017-10-11T00:50:36.365Z,97378.25
2017-10-11T00:53:03.791Z,97383.56
2017-10-11T00:55:31.225Z,97382.48
2017-10-11T00:57:59.044Z,97381.98
2017-10-11T01:00:26.456Z,97374.91
2017-10-11T01:02:53.872Z,97382.19
2017-10-11T01:05:21.688Z,97380.69
2017-10-11T01:07:49.095Z,97378.51
2017-10-11T01:10:16.502Z,97386.95
2017-10-11T01:12:43.978Z,97381.64
2017-10-11T01:15:11.495Z,97374.38
2017-10-11T01:17:38.908Z,97377.13
2017-10-11T01:20:06.789Z,97372.46
2017-10-11T01:22:34.202Z,97381.16
2017-10-11T01:25:01.620Z,97375.67
2017-10-11T01:27:29.083Z,97377.77
2017-10-11T01:29:56.501Z,97386.00
2017-10-11T01:32:23.912Z,97380.52
2017-10-11T01:34:51.749Z,97379.87
2017-10-11T01:37:19.153Z,97385.15
2017-10-11T01:39:46.602Z,97382.41
2017-10-11T01:42:14.307Z,97387.37
2017-10-11T01:44:41.721Z,97386.09
2017-10-11T01:47:09.122Z,97386.09
2017-10-11T01:49:37.059Z,97380.73
2017-10-11T01:52:04.480Z,97386.22
2017-10-11T01:54:31.888Z,97386.09
2017-10-11T01:56:59.882Z,97385.15
2017-10-11T01:59:27.282Z,97380.30
2017-10-11T02:01:54.701Z,97383.47
2017-10-11T02:04:22.862Z,97383.99
2017-10-11T02:06:50.280Z,97389.48
2017-10-11T02:09:17.715Z,97390.20
2017-10-11T02:11:45.544Z,97386.22
2017-10-11T02:14:12.964Z,97386.64
2017-10-11T02:16:40.990Z,97383.91
2017-10-11T02:19:08.840Z,97384.72
2017-10-11T02:21:36.257Z,97387.16
2017-10-11T02:24:03.710Z,97386.64
2017-10-11T02:26:31.154Z,97384.84
2017-10-11T02:28:58.574Z,97385.15
2017-10-11T02:31:25.981Z,97381.55
2017-10-11T02:33:53.677Z,97388.31
2017-10-11T02:36:21.096Z,97376.62
2017-10-11T02:38:48.515Z,97383.91
2017-10-11T02:41:15.983Z,97385.67
2017-10-11T02:43:43.390Z,97378.51
2017-10-11T02:46:10.795Z,97368.27
2017-10-11T02:48:38.418Z,97364.80
2017-10-11T02:51:05.826Z,97369.76
2017-10-11T02:53:33.240Z,97371.13
2017-10-11T02:56:00.784Z,97370.83
2017-10-11T02:58:28.189Z,97370.41
2017-10-11T03:00:55.618Z,97368.18
2017-10-11T03:03:23.051Z,97374.52
2017-10-11T03:05:50.457Z,97373.58
2017-10-11T03:08:17.880Z,97369.85
2017-10-11T03:10:45.363Z,97373.58
2017-10-11T03:13:12.770Z,97381.67
2017-10-11T03:15:40.198Z,97375.68
2017-10-11T03:18:08.472Z,97379.16
2017-10-11T03:20:35.889Z,97381.89
2017-10-11T03:23:03.296Z,97380.77
2017-10-11T03:25:31.079Z,97380.65
2017-10-11T03:27:59.467Z,97371.27
2017-10-11T03:30:26.926Z,97381.17
2017-10-11T03:32:54.363Z,97378.20
2017-10-11T03:35:21.775Z,97382.88
2017-10-11T03:37:49.285Z,97377.48
2017-10-11T03:40:16.822Z,97378.03
2017-10-11T03:42:44.222Z,97375.47
2017-10-11T03:45:11.632Z,97385.19
2017-10-11T03:47:39.434Z,97384.24
2017-10-11T03:50:06.894Z,97379.28
2017-10-11T03:52:34.291Z,97378.76
2017-10-11T03:55:01.739Z,97386.14
2017-10-11T03:57:29.160Z,97387.94
2017-10-11T03:59:56.564Z,97386.27
2017-10-11T04:02:24.023Z,97392.14
2017-10-11T04:04:51.474Z,97391.20
2017-10-11T04:07:18.889Z,97388.02
2017-10-11T04:09:46.330Z,97386.44
2017-10-11T04:12:13.738Z,97388.36
2017-10-11T04:14:41.165Z,97388.11
2017-10-11T04:17:08.607Z,97386.86
2017-10-11T04:19:36.067Z,97381.67
2017-10-11T04:22:03.471Z,97381.16
2017-10-11T04:24:30.964Z,97387.47
2017-10-11T04:26:58.434Z,97386.82
2017-10-11T04:29:25.879Z,97381.33
2017-10-11T04:31:53.402Z,97384.93
2017-10-11T04:34:20.812Z,97384.93
2017-10-11T04:36:48.219Z,97386.82
2017-10-11T04:39:15.697Z,97394.11
2017-10-11T04:41:43.100Z,97392.86
2017-10-11T04:44:10.514Z,97395.70
2017-10-11T04:46:38.007Z,97395.60
2017-10-11T04:49:05.422Z,97391.16
2017-10-11T04:51:32.839Z,97399.25
2017-10-11T04:54:00.297Z,97395.44
2017-10-11T04:56:27.718Z,97385.66
2017-10-11T04:58:55.160Z,97380.81
2017-10-11T05:01:23.042Z,97386.17
2017-10-11T05:03:50.456Z,97384.80
2017-10-11T05:06:17.878Z,97384.08
2017-10-11T05:08:45.417Z,97384.63
2017-10-11T05:11:12.825Z,97384.84
2017-10-11T05:13:40.242Z,97383.17
2017-10-11T05:16:07.681Z,97385.36
2017-10-11T05:18:35.092Z,97381.25
2017-10-11T05:21:02.511Z,97385.48
2017-10-11T05:23:30.010Z,97389.73
2017-10-11T05:25:57.415Z,97386.14
2017-10-11T05:28:24.834Z,97388.53
2017-10-11T05:30:52.283Z,97379.14
2017-10-11T05:33:19.719Z,97381.55
2017-10-11T05:35:47.143Z,97390.51
2017-10-11T05:38:14.646Z,97391.48
2017-10-11T05:40:42.053Z,97392.22
2017-10-11T05:43:09.529Z,97388.84
2017-10-11T05:45:37.000Z,97387.47
2017-10-11T05:48:05.033Z,97391.88
2017-10-11T05:50:32.449Z,97387.67
2017-10-11T05:53:00.234Z,97392.31
2017-10-11T05:55:27.706Z,97401.61
2017-10-11T05:57:55.176Z,97395.82
2017-10-11T06:00:22.696Z,97396.13
2017-10-11T06:02:50.115Z,97394.23
2017-10-11T06:05:17.540Z,97394.79
2017-10-11T06:07:45.095Z,97396.67
2017-10-11T06:10:12.502Z,97401.95
2017-10-11T06:12:39.908Z,97402.55
2017-10-11T06:15:07.579Z,97403.63
2017-10-11T06:17:35.127Z,97401.91
2017-10-11T06:20:02.541Z,97402.45
2017-10-11T06:22:30.030Z,97407.39
2017-10-11T06:24:57.435Z,97407.30
2017-10-11T06:27:25.035Z,97407.39
2017-10-11T06:29:52.497Z,97415.41
2017-10-11T06:32:19.917Z,97419.70
2017-10-11T06:34:47.345Z,97422.22
2017-10-11T06:37:14.808Z,97416.22
2017-10-11T06:39:42.512Z,97424.63
2017-10-11T06:42:09.921Z,97425.69
2017-10-11T06:44:37.831Z,97430.33
2017-10-11T06:47:05.296Z,97428.86
2017-10-11T06:49:32.790Z,97430.23
2017-10-11T06:52:00.266Z,97426.64
2017-10-11T06:54:27.680Z,97426.77
2017-10-11T06:56:55.114Z,97425.48
2017-10-11T06:59:22.893Z,97427.49
2017-10-11T07:01:50.320Z,97426.77
2017-10-11T07:04:17.726Z,97428.05
2017-10-11T07:06:45.565Z,97428.48
2017-10-11T07:09:12.984Z,97430.67
2017-10-11T07:11:40.433Z,97431.40
2017-10-11T07:14:08.241Z,97427.92
2017-10-11T07:16:35.652Z,97430.33
2017-10-11T07:19:03.092Z,97431.61
2017-10-11T07:21:30.545Z,97437.09
2017-10-11T07:23:58.038Z,97443.31
2017-10-11T07:26:25.446Z,97439.71
2017-10-11T07:28:52.914Z,97443.34
2017-10-11T07:31:20.325Z,97442.38
2017-10-11T07:33:47.788Z,97449.87
2017-10-11T07:36:15.553Z,97444.38
2017-10-11T07:38:42.973Z,97449.53
2017-10-11T07:41:10.381Z,97451.88
2017-10-11T07:43:37.832Z,97446.27
2017-10-11T07:46:05.724Z,97448.16
2017-10-11T07:48:33.144Z,97445.11
2017-10-11T07:51:00.715Z,97443.02
2017-10-11T07:53:28.203Z,97441.85
2017-10-11T07:55:55.608Z,97447.13
2017-10-11T07:58:23.196Z,97447.13
2017-10-11T08:00:50.638Z,97445.33
2017-10-11T08:03:18.047Z,97445.75
2017-10-11T08:05:45.567Z,97443.40
2017-10-11T08:08:12.977Z,97450.59
2017-10-11T08:10:40.407Z,97449.44
2017-10-11T08:13:08.238Z,97445.33
2017-10-11T08:15:35.754Z,97448.16
2017-10-11T08:18:03.185Z,97449.02
2017-10-11T08:20:31.124Z,97443.40
2017-10-11T08:22:58.536Z,97437.86
2017-10-11T08:25:25.949Z,97451.11
2017-10-11T08:27:53.424Z,97448.80
2017-10-11T08:30:20.939Z,97446.23
2017-10-11T08:32:48.495Z,97449.27
2017-10-11T08:35:16.030Z,97448.33
2017-10-11T08:37:43.465Z,97446.87
2017-10-11T08:40:10.936Z,97449.70
2017-10-11T08:42:38.843Z,97452.36
2017-10-11T08:45:06.246Z,97446.78
2017-10-11T08:47:33.668Z,97446.53
2017-10-11T08:50:01.118Z,97440.09
2017-10-11T08:52:28.564Z,97441.47
2017-10-11T08:54:55.981Z,97439.45
2017-10-11T08:57:23.429Z,97445.49
2017-10-11T08:59:50.853Z,97446.23
2017-10-11T09:02:18.260Z,97446.95
2017-10-11T09:04:45.717Z,97440.31
2017-10-11T09:07:13.393Z,97441.25
2017-10-11T09:09:40.801Z,97444.22
2017-10-11T09:12:08.693Z,97442.33
2017-10-11T09:14:36.127Z,97433.67
2017-10-11T09:17:03.566Z,97438.94
2017-10-11T09:19:31.075Z,97436.41
2017-10-11T09:21:58.487Z,97436.53
2017-10-11T09:24:26.193Z,97436.11
2017-10-11T09:26:53.684Z,97426.59
2017-10-11T09:29:21.119Z,97429.03
2017-10-11T09:31:48.725Z,97428.70
2017-10-11T09:34:16.228Z,97422.17
2017-10-11T09:36:43.648Z,97424.06
2017-10-11T09:39:11.064Z,97418.45
2017-10-11T09:41:39.019Z,97416.86
2017-10-11T09:44:06.449Z,97416.86
2017-10-11T09:46:33.914Z,97411.28
2017-10-11T09:49:01.812Z,97405.24
2017-10-11T09:51:29.237Z,97412.10
2017-10-11T09:53:56.656Z,97398.26
2017-10-11T09:56:24.486Z,97395.64
2017-10-11T09:58:52.679Z,97391.40
2017-10-11T10:01:20.087Z,97390.23
2017-10-11T10:03:48.492Z,97377.89
2017-10-11T10:06:15.899Z,97381.88
2017-10-11T10:08:43.433Z,97385.99
2017-10-11T10:11:11.057Z,97379.13
2017-10-11T10:13:38.506Z,97380.28
2017-10-11T10:16:05.969Z,97385.25
2017-10-11T10:18:33.588Z,97380.28
2017-10-11T10:21:01.189Z,97382.30
2017-10-11T10:23:28.794Z,97376.17
2017-10-11T10:25:56.240Z,97372.61
2017-10-11T10:28:23.717Z,97369.31
2017-10-11T10:30:51.263Z,97371.11
2017-10-11T10:33:19.106Z,97371.92
2017-10-11T10:35:46.544Z,97365.63
2017-10-11T10:38:14.010Z,97369.19
2017-10-11T10:40:41.501Z,97366.22
2017-10-11T10:43:08.928Z,97362.53
2017-10-11T10:45:36.340Z,97356.19
2017-10-11T10:48:04.153Z,97357.69
2017-10-11T10:50:31.566Z,97357.09
2017-10-11T10:52:58.980Z,97349.77
2017-10-11T10:55:26.832Z,97350.94
2017-10-11T10:57:54.266Z,97347.02
2017-10-11T11:00:21.703Z,97343.94
2017-10-11T11:02:49.678Z,97341.75
2017-10-11T11:05:17.112Z,97337.91
2017-10-11T11:07:44.543Z,97338.73
2017-10-11T11:10:12.067Z,97330.19
2017-10-11T11:12:39.489Z,97325.00
2017-10-11T11:15:06.912Z,97325.09
2017-10-11T11:17:34.751Z,97320.33
2017-10-11T11:20:02.195Z,97311.80
2017-10-11T11:22:29.859Z,97305.70
2017-10-11T11:24:58.544Z,97312.57
2017-10-11T11:27:26.051Z,97304.52
2017-10-11T11:29:53.469Z,97306.86
2017-10-11T11:32:20.921Z,97306.44
2017-10-11T11:34:48.346Z,97296.92
2017-10-11T11:37:15.779Z,97302.06
2017-10-11T11:39:43.249Z,97296.05
2017-10-11T11:42:10.666Z,97290.78
2017-10-11T11:44:38.110Z,97286.15
2017-10-11T11:47:05.645Z,97281.02
2017-10-11T11:49:33.070Z,97276.55
2017-10-11T11:52:00.491Z,97273.58
2017-10-11T11:54:28.352Z,97272.86
2017-10-11T11:56:55.781Z,97269.21
2017-10-11T11:59:23.194Z,97264.34
2017-10-11T12:01:51.040Z,97270.14
2017-10-11T12:04:18.467Z,97263.09
2017-10-11T12:06:45.880Z,97263.14
2017-10-11T12:09:13.349Z,97262.53
2017-10-11T12:11:40.778Z,97260.73
2017-10-11T12:14:08.268Z,97256.52
2017-10-11T12:16:35.786Z,97251.84
2017-10-11T12:19:03.207Z,97247.98
2017-10-11T12:21:30.699Z,97241.81
2017-10-11T12:23:59.115Z,97246.48
2017-10-11T12:26:26.530Z,97240.89
2017-10-11T12:28:53.958Z,97237.85
2017-10-11T12:31:21.850Z,97239.74
2017-10-11T12:33:49.385Z,97232.23
2017-10-11T12:36:16.798Z,97238.67
2017-10-11T12:38:44.271Z,97228.38
2017-10-11T12:41:11.697Z,97228.95
2017-10-11T12:43:39.125Z,97232.59
2017-10-11T12:46:06.740Z,97229.06
2017-10-11T12:48:34.164Z,97226.03
2017-10-11T12:51:01.585Z,97221.79
2017-10-11T12:53:29.455Z,97226.20
2017-10-11T12:55:56.875Z,97219.99
2017-10-11T12:58:24.288Z,97215.35
2017-10-11T13:00:51.762Z,97216.08
2017-10-11T13:03:19.272Z,97215.09
2017-10-11T13:05:46.817Z,97208.56
2017-10-11T13:08:14.617Z,97210.52
2017-10-11T13:10:42.178Z,97211.95
2017-10-11T13:13:09.637Z,97209.61
2017-10-11T13:15:38.102Z,97205.62
2017-10-11T13:18:05.526Z,97205.94
2017-10-11T13:20:32.955Z,97202.45
2017-10-11T13:23:00.444Z,97203.59
2017-10-11T13:25:27.975Z,97201.20
2017-10-11T13:27:55.385Z,97192.34
2017-10-11T13:33:16.155Z,97196.33
2017-10-11T13:35:43.573Z,97191.92
2017-10-11T13:38:11.009Z,97190.23
2017-10-11T13:40:38.488Z,97186.92
2017-10-11T13:43:05.934Z,97186.53
2017-10-11T13:45:33.405Z,97181.70
2017-10-11T13:48:02.014Z,97183.26
2017-10-11T13:50:29.466Z,97178.42
2017-10-11T13:52:57.063Z,97181.17
2017-10-11T13:55:24.584Z,97173.78
2017-10-11T13:57:52.041Z,97174.30
2017-10-11T14:00:19.480Z,97179.07
2017-10-11T14:02:47.043Z,97170.31
2017-10-11T14:05:14.538Z,97171.14
2017-10-11T14:07:42.010Z,97171.14
2017-10-11T14:10:09.513Z,97166.07
2017-10-11T14:12:36.994Z,97156.34
2017-10-11T14:15:04.441Z,97161.17
2017-10-11T14:17:32.029Z,97164.05
2017-10-11T14:19:59.459Z,97159.34
2017-10-11T14:22:26.872Z,97161.14
2017-10-11T14:24:54.364Z,97162.61
2017-10-11T14:27:21.880Z,97158.97
2017-10-11T14:29:49.390Z,97160.22
2017-10-11T14:32:17.335Z,97160.41
2017-10-11T14:34:44.804Z,97161.94
2017-10-11T14:37:12.275Z,97156.30
2017-10-11T14:39:39.899Z,97157.12
2017-10-11T14:42:07.323Z,97157.89
2017-10-11T14:44:34.741Z,97159.14
2017-10-11T14:47:02.225Z,97153.23
2017-10-11T14:49:29.633Z,97157.67
2017-10-11T14:51:57.055Z,97151.46
2017-10-11T14:54:25.495Z,97154.73
2017-10-11T14:56:52.929Z,97150.81
2017-10-11T14:59:20.329Z,97142.37
2017-10-11T15:01:48.252Z,97147.73
2017-10-11T15:04:15.662Z,97151.46
2017-10-11T15:06:43.120Z,97151.46
2017-10-11T15:09:10.933Z,97149.53
2017-10-11T15:11:38.356Z,97154.27
2017-10-11T15:14:05.777Z,97148.23
2017-10-11T15:16:33.339Z,97153.19
2017-10-11T15:19:00.764Z,97154.73
2017-10-11T15:21:28.203Z,97157.89
2017-10-11T15:23:56.075Z,97158.27
2017-10-11T15:26:23.513Z,97147.16
2017-10-11T15:28:50.925Z,97151.27
2017-10-11T15:31:18.397Z,97153.23
2017-10-11T15:33:45.838Z,97153.84
2017-10-11T15:36:13.275Z,97150.73
2017-10-11T15:38:41.125Z,97148.89
2017-10-11T15:41:08.527Z,97152.13
2017-10-11T15:43:35.950Z,97153.13
2017-10-11T15:46:04.354Z,97152.48
2017-10-11T15:48:31.843Z,97150.25
2017-10-11T15:50:59.322Z,97148.10
2017-10-11T15:53:26.884Z,97143.34
2017-10-11T15:55:54.377Z,97150.86
2017-10-11T15:58:21.806Z,97143.56
2017-10-11T16:00:49.656Z,97146.19
2017-10-11T16:03:17.227Z,97148.93
2017-10-11T16:05:44.711Z,97150.59
2017-10-11T16:08:12.386Z,97149.35
2017-10-11T16:10:39.829Z,97153.77
2017-10-11T16:13:07.254Z,97153.17
2017-10-11T16:15:35.020Z,97147.98
2017-10-11T16:18:02.426Z,97153.99
2017-10-11T16:20:29.864Z,97152.34
2017-10-11T16:22:57.463Z,97155.95
2017-10-11T16:25:24.868Z,97155.52
2017-10-11T16:27:52.292Z,97155.30
2017-10-11T16:30:20.146Z,97161.83
2017-10-11T16:32:47.589Z,97162.00
2017-10-11T16:35:15.046Z,97161.58
2017-10-11T16:37:42.535Z,97162.65
2017-10-11T16:40:09.974Z,97156.34
2017-10-11T16:42:37.466Z,97160.55
2017-10-11T16:45:05.199Z,97164.05
2017-10-11T16:47:32.612Z,97160.33
2017-10-11T16:50:00.034Z,97159.38
2017-10-11T16:52:27.949Z,97164.31
2017-10-11T16:54:55.364Z,97164.75
2017-10-11T16:57:22.788Z,97167.32
2017-10-11T16:59:50.352Z,97171.53
2017-10-11T17:02:17.775Z,97175.00
2017-10-11T17:04:45.183Z,97171.83
2017-10-11T17:07:13.056Z,97174.38
2017-10-11T17:09:40.492Z,97177.25
2017-10-11T17:12:07.986Z,97176.08
2017-10-11T17:14:35.486Z,97181.56
2017-10-11T17:17:02.908Z,97181.99
2017-10-11T17:19:30.382Z,97183.98
2017-10-11T17:21:57.944Z,97182.41
2017-10-11T17:24:25.373Z,97188.23
2017-10-11T17:26:52.783Z,97183.39
2017-10-11T17:29:20.238Z,97190.64
2017-10-11T17:31:47.723Z,97188.97
2017-10-11T17:34:15.119Z,97194.95
2017-10-11T17:36:42.580Z,97188.63
2017-10-11T17:39:09.993Z,97196.98
2017-10-11T17:41:37.448Z,97193.09
2017-10-11T17:44:05.252Z,97193.02
2017-10-11T17:46:32.669Z,97189.33
2017-10-11T17:49:00.078Z,97193.39
2017-10-11T17:51:27.548Z,97196.03
2017-10-11T17:53:54.968Z,97193.29
2017-10-11T17:56:22.426Z,97196.45
2017-10-11T17:58:50.238Z,97203.66
2017-10-11T18:01:17.654Z,97201.82
2017-10-11T18:03:45.068Z,97203.32
2017-10-11T18:06:12.549Z,97207.77
2017-10-11T18:08:39.981Z,97213.13
2017-10-11T18:11:07.396Z,97213.55
2017-10-11T18:13:35.299Z,97211.75
2017-10-11T18:16:02.796Z,97212.61
2017-10-11T18:18:30.243Z,97214.28
2017-10-11T18:20:57.721Z,97216.06
2017-10-11T18:23:25.148Z,97221.02
2017-10-11T18:25:52.551Z,97220.81
2017-10-11T18:28:20.077Z,97221.11
2017-10-11T18:30:47.516Z,97229.69
2017-10-11T18:33:14.948Z,97233.45
2017-10-11T18:35:42.576Z,97229.84
2017-10-11T18:38:10.044Z,97243.12
2017-10-11T18:40:37.454Z,97234.45
2017-10-11T18:43:04.961Z,97237.20
2017-10-11T18:45:32.432Z,97239.75
2017-10-11T18:47:59.928Z,97248.81
2017-10-11T18:50:27.407Z,97248.28
2017-10-11T18:52:54.843Z,97254.84
2017-10-11T18:55:22.248Z,97250.63
2017-10-11T18:57:50.023Z,97255.61
2017-10-11T19:00:17.452Z,97261.95
2017-10-11T19:02:44.864Z,97257.11
2017-10-11T19:05:12.692Z,97259.73
2017-10-11T19:07:40.120Z,97260.58
2017-10-11T19:10:07.538Z,97268.47
2017-10-11T19:12:35.369Z,97273.95
2017-10-11T19:15:02.874Z,97273.88
2017-10-11T19:17:30.281Z,97275.70
2017-10-11T19:19:57.765Z,97281.19
2017-10-11T19:22:25.219Z,97280.44
2017-10-11T19:24:52.644Z,97277.14
2017-10-11T19:27:20.132Z,97278.00
2017-10-11T19:29:47.590Z,97278.86
2017-10-11T19:32:15.004Z,97276.67
2017-10-11T19:34:42.558Z,97281.31
2017-10-11T19:37:09.996Z,97282.54
2017-10-11T19:39:37.471Z,97281.56
2017-10-11T19:42:06.997Z,97287.05
2017-10-11T19:44:34.443Z,97287.90
2017-10-11T19:47:01.848Z,97291.07
2017-10-11T19:49:29.330Z,97290.22
2017-10-11T19:51:56.762Z,97299.75
2017-10-11T19:54:24.216Z,97302.27
2017-10-11T19:56:51.699Z,97299.73
2017-10-11T19:59:19.142Z,97304.23
2017-10-11T20:01:46.536Z,97303.14
2017-10-11T20:04:14.098Z,97307.16
2017-10-11T20:06:41.553Z,97315.98
2017-10-11T20:09:08.981Z,97317.23
2017-10-11T20:11:36.435Z,97316.51
2017-10-11T20:14:03.883Z,97321.27
2017-10-11T20:16:31.307Z,97317.20
2017-10-11T20:18:59.177Z,97319.73
2017-10-11T20:21:26.586Z,97326.81
2017-10-11T20:23:54.083Z,97321.55
2017-10-11T20:26:21.569Z,97333.50
2017-10-11T20:28:49.090Z,97333.59
2017-10-11T20:31:16.523Z,97330.84
2017-10-11T20:33:43.994Z,97335.39
2017-10-11T20:36:11.415Z,97342.13
2017-10-11T20:38:38.906Z,97340.45
2017-10-11T20:41:07.380Z,97325.91
2017-10-11T20:43:34.820Z,97327.88
2017-10-11T20:46:02.230Z,97333.67
2017-10-11T20:48:29.718Z,97326.29
2017-10-11T20:50:57.148Z,97329.33
2017-10-11T20:53:24.548Z,97321.23
2017-10-11T20:55:52.690Z,97323.89
2017-10-11T20:58:20.115Z,97330.67
2017-10-11T21:00:47.560Z,97335.94
2017-10-11T21:03:15.087Z,97335.09
2017-10-11T21:05:42.574Z,97343.20
2017-10-11T21:08:10.030Z,97343.33
2017-10-11T21:10:37.810Z,97339.71
2017-10-11T21:13:05.258Z,97346.23
2017-10-11T21:15:32.944Z,97348.09
2017-10-11T21:18:00.669Z,97342.25
2017-10-11T21:20:28.427Z,97350.95
2017-10-11T21:22:55.831Z,97354.22
2017-10-11T21:25:23.659Z,97350.11
2017-10-11T21:27:51.112Z,97352.20
2017-10-11T21:30:18.528Z,97351.77
2017-10-11T21:32:46.012Z,97352.55
2017-10-11T21:35:13.464Z,97349.37
2017-10-11T21:37:40.886Z,97348.13
2017-10-11T21:40:08.392Z,97354.34
2017-10-11T21:42:35.932Z,97352.84
2017-10-11T21:45:03.360Z,97353.49
2017-10-11T21:47:30.815Z,97361.00
2017-10-11T21:49:58.240Z,97353.71
2017-10-11T21:52:25.674Z,97356.88
2017-10-11T21:54:53.248Z,97355.52
2017-10-11T21:57:20.680Z,97363.09
2017-10-11T21:59:48.097Z,97357.19
2017-10-11T22:02:15.935Z,97359.20
2017-10-11T22:04:43.345Z,97358.03
2017-10-11T22:07:10.771Z,97356.36
2017-10-11T22:09:38.236Z,97359.36
2017-10-11T22:12:05.648Z,97358.89
2017-10-11T22:14:33.293Z,97356.92
2017-10-11T22:17:00.772Z,97359.79
2017-10-11T22:19:28.176Z,97362.58
2017-10-11T22:21:55.589Z,97361.08
2017-10-11T22:24:23.025Z,97366.14
2017-10-11T22:26:50.457Z,97366.14
2017-10-11T22:29:18.020Z,97358.46
2017-10-11T22:31:45.457Z,97357.91
2017-10-11T22:34:12.875Z,97361.93
2017-10-11T22:36:40.298Z,97363.00
2017-10-11T22:39:08.179Z,97368.88
2017-10-11T22:41:35.590Z,97362.88
2017-10-11T22:44:03.023Z,97360.13
2017-10-11T22:46:30.661Z,97363.56
2017-10-11T22:48:58.079Z,97364.05
2017-10-11T22:51:25.510Z,97362.16
2017-10-11T22:53:52.946Z,97365.32
2017-10-11T22:56:20.412Z,97360.05
2017-10-11T22:58:47.832Z,97365.41
2017-10-11T23:01:15.663Z,97359.11
2017-10-11T23:03:43.082Z,97363.70
2017-10-11T23:06:10.499Z,97365.20
2017-10-11T23:08:38.632Z,97357.10
2017-10-11T23:11:06.039Z,97356.45
2017-10-11T23:13:33.512Z,97356.88
2017-10-11T23:16:01.868Z,97359.11
2017-10-11T23:18:29.324Z,97362.92
2017-10-11T23:20:56.743Z,97362.50
2017-10-11T23:23:24.199Z,97366.78
2017-10-11T23:25:51.616Z,97369.23
2017-10-11T23:28:19.042Z,97363.02
2017-10-11T23:30:46.824Z,97364.39
2017-10-11T23:33:14.237Z,97364.52
2017-10-11T23:35:41.652Z,97365.76
2017-10-11T23:38:09.131Z,97363.14
2017-10-11T23:40:36.535Z,97366.70
2017-10-11T23:43:03.956Z,97362.84
2017-10-11T23:45:31.403Z,97365.88
2017-10-11T23:47:58.820Z,97364.09
2017-10-11T23:50:26.246Z,97366.41
2017-10-11T23:52:53.801Z,97371.37
2017-10-11T23:55:21.203Z,97368.84
2017-10-11T23:57:48.619Z,97371.80
